DLH010 VCBI-VABB
Flight info
| Callsign | DLH010 |
|---|---|
| Flight time | N/A |
| Altitude | 38000 |
| Route | ATETA2D ATETA T4 TTR W42 BIA W56 AGELA MOLGO2A |
| Aircraft | A20N/M-SDE2E3FGHIRWXY/LB1 |
Departure
| Time | 2026-04-22 06:12 |
|---|---|
| Airport | Bandaranaike International Colombo Airport (VCBI) |
Arrival
| Time | N/A |
|---|---|
| Airport | Chhatrapati Shivaji Maharaj International Airport (VABB) |
| Time | Latitude | Longitude | Altitude | Speed | Heading |
|---|---|---|---|---|---|
| 2026-04-22 05:53 | 7.17631 | 79.88606 | 33 ft | 0 kts | 218° |
| 2026-04-22 06:00 | 7.17637 | 79.88611 | 34 ft | 2 kts | 217° |
| 2026-04-22 06:00 | 7.17647 | 79.88619 | 35 ft | 2 kts | 220° |
| 2026-04-22 06:00 | 7.17668 | 79.88638 | 36 ft | 1 kts | 226° |
| 2026-04-22 06:01 | 7.17677 | 79.88647 | 36 ft | 1 kts | 235° |
| 2026-04-22 06:01 | 7.17683 | 79.88657 | 36 ft | 2 kts | 264° |
| 2026-04-22 06:01 | 7.17684 | 79.88663 | 33 ft | 0 kts | 290° |
| 2026-04-22 06:03 | 7.17687 | 79.88656 | 33 ft | 3 kts | 290° |
| 2026-04-22 06:03 | 7.17698 | 79.88628 | 33 ft | 6 kts | 294° |
| 2026-04-22 06:03 | 7.17721 | 79.88585 | 33 ft | 8 kts | 305° |
| 2026-04-22 06:03 | 7.17770 | 79.88541 | 33 ft | 11 kts | 318° |
| 2026-04-22 06:04 | 7.17829 | 79.88485 | 33 ft | 13 kts | 310° |
| 2026-04-22 06:04 | 7.17838 | 79.88408 | 34 ft | 13 kts | 238° |
| 2026-04-22 06:04 | 7.17767 | 79.88346 | 34 ft | 14 kts | 217° |
| 2026-04-22 06:04 | 7.17684 | 79.88279 | 34 ft | 16 kts | 218° |
| 2026-04-22 06:05 | 7.17589 | 79.88215 | 33 ft | 17 kts | 225° |
| 2026-04-22 06:05 | 7.17492 | 79.88136 | 33 ft | 19 kts | 218° |
| 2026-04-22 06:05 | 7.17391 | 79.88058 | 33 ft | 20 kts | 218° |
| 2026-04-22 06:05 | 7.17274 | 79.87966 | 32 ft | 22 kts | 218° |
| 2026-04-22 06:06 | 7.17146 | 79.87873 | 32 ft | 23 kts | 217° |
| 2026-04-22 06:06 | 7.17015 | 79.87773 | 32 ft | 24 kts | 217° |
| 2026-04-22 06:06 | 7.16878 | 79.87667 | 32 ft | 25 kts | 217° |
| 2026-04-22 06:06 | 7.16838 | 79.87634 | 32 ft | 1 kts | 232° |
| 2026-04-22 06:07 | 7.16834 | 79.87617 | 32 ft | 4 kts | 262° |
| 2026-04-22 06:07 | 7.16841 | 79.87585 | 32 ft | 6 kts | 285° |
| 2026-04-22 06:07 | 7.16870 | 79.87549 | 33 ft | 8 kts | 311° |
| 2026-04-22 06:07 | 7.16910 | 79.87504 | 33 ft | 9 kts | 311° |
| 2026-04-22 06:08 | 7.16931 | 79.87480 | 34 ft | 0 kts | 311° |
| 2026-04-22 06:10 | 7.16933 | 79.87479 | 34 ft | 1 kts | 313° |
| 2026-04-22 06:10 | 7.16937 | 79.87478 | 34 ft | 0 kts | 342° |
| 2026-04-22 06:11 | 7.16942 | 79.87479 | 34 ft | 0 kts | 5° |
| 2026-04-22 06:11 | 7.16949 | 79.87484 | 34 ft | 2 kts | 27° |
| 2026-04-22 06:11 | 7.16966 | 79.87500 | 33 ft | 5 kts | 53° |
| 2026-04-22 06:11 | 7.16993 | 79.87534 | 33 ft | 8 kts | 41° |
| 2026-04-22 06:12 | 7.17129 | 79.87636 | 32 ft | 61 kts | 37° |
| 2026-04-22 06:12 | 7.17679 | 79.88056 | 35 ft | 134 kts | 37° |
| 2026-04-22 06:12 | 7.18511 | 79.88674 | 496 ft | 150 kts | 36° |
| 2026-04-22 06:12 | 7.19376 | 79.89345 | 1066 ft | 163 kts | 38° |
| 2026-04-22 06:13 | 7.20275 | 79.90086 | 1820 ft | 168 kts | 38° |
| 2026-04-22 06:13 | 7.21286 | 79.90626 | 2384 ft | 173 kts | 6° |
| 2026-04-22 06:13 | 7.22517 | 79.90442 | 2856 ft | 189 kts | 341° |
| 2026-04-22 06:13 | 7.23823 | 79.89971 | 3321 ft | 209 kts | 338° |
| 2026-04-22 06:14 | 7.25241 | 79.89421 | 3779 ft | 229 kts | 338° |
| 2026-04-22 06:14 | 7.26790 | 79.88837 | 4324 ft | 243 kts | 339° |
| 2026-04-22 06:14 | 7.28376 | 79.88277 | 5143 ft | 245 kts | 345° |
| 2026-04-22 06:14 | 7.30084 | 79.88122 | 5941 ft | 249 kts | 1° |
| 2026-04-22 06:15 | 7.31875 | 79.88255 | 6330 ft | 270 kts | 5° |
| 2026-04-22 06:15 | 7.33788 | 79.88421 | 6128 ft | 273 kts | 4° |
| 2026-04-22 06:15 | 7.35675 | 79.88536 | 6121 ft | 278 kts | 2° |
| 2026-04-22 06:15 | 7.37756 | 79.88610 | 6122 ft | 320 kts | 1° |
| 2026-04-22 06:16 | 7.40114 | 79.88653 | 6121 ft | 357 kts | 0° |
| 2026-04-22 06:16 | 7.42715 | 79.88664 | 6120 ft | 389 kts | 360° |
| 2026-04-22 06:16 | 7.45506 | 79.88662 | 6524 ft | 400 kts | 359° |
| 2026-04-22 06:16 | 7.48191 | 79.88658 | 7234 ft | 361 kts | 359° |
| 2026-04-22 06:17 | 7.50386 | 79.88657 | 7407 ft | 274 kts | 359° |
| 2026-04-22 06:17 | 7.52180 | 79.88660 | 7136 ft | 265 kts | 359° |
| 2026-04-22 06:17 | 7.54115 | 79.88662 | 6772 ft | 283 kts | 360° |
| 2026-04-22 06:17 | 7.56064 | 79.88665 | 6405 ft | 283 kts | 360° |
| 2026-04-22 06:18 | 7.58021 | 79.88669 | 6133 ft | 277 kts | 360° |
| 2026-04-22 06:18 | 7.59913 | 79.88672 | 6119 ft | 272 kts | 360° |
| 2026-04-22 06:18 | 7.63163 | 79.88677 | 6119 ft | 273 kts | 359° |
| 2026-04-22 06:18 | 7.70766 | 79.88342 | 6125 ft | 285 kts | 351° |
| 2026-04-22 06:19 | 7.79935 | 79.87010 | 6118 ft | 378 kts | 351° |
| 2026-04-22 06:19 | 7.90405 | 79.85501 | 6118 ft | 380 kts | 351° |
| 2026-04-22 06:19 | 8.00906 | 79.83985 | 6119 ft | 380 kts | 351° |
| 2026-04-22 06:19 | 8.11382 | 79.82471 | 6118 ft | 380 kts | 351° |
| 2026-04-22 06:20 | 8.21857 | 79.80955 | 6118 ft | 380 kts | 351° |
| 2026-04-22 06:20 | 8.32330 | 79.79439 | 6118 ft | 380 kts | 351° |
| 2026-04-22 06:20 | 8.42813 | 79.77921 | 6118 ft | 380 kts | 351° |
| 2026-04-22 06:20 | 8.53320 | 79.76398 | 6118 ft | 380 kts | 351° |
| 2026-04-22 06:21 | 8.63768 | 79.74864 | 6118 ft | 380 kts | 351° |
| 2026-04-22 06:21 | 8.74126 | 79.73344 | 6119 ft | 380 kts | 351° |
| 2026-04-22 06:21 | 8.84744 | 79.71786 | 6118 ft | 380 kts | 351° |
| 2026-04-22 06:21 | 8.95069 | 79.70270 | 6118 ft | 380 kts | 351° |
| 2026-04-22 06:22 | 9.05564 | 79.68727 | 6118 ft | 380 kts | 351° |
| 2026-04-22 06:22 | 9.16029 | 79.67189 | 6117 ft | 380 kts | 351° |
| 2026-04-22 06:22 | 9.26513 | 79.65646 | 6119 ft | 380 kts | 351° |
| 2026-04-22 06:22 | 9.36312 | 79.62024 | 6118 ft | 379 kts | 327° |
| 2026-04-22 06:23 | 9.45359 | 79.56292 | 7998 ft | 388 kts | 328° |
| 2026-04-22 06:23 | 9.51217 | 79.52581 | 9797 ft | 398 kts | 328° |
| 2026-04-22 06:23 | 9.53579 | 79.51084 | 10486 ft | 402 kts | 328° |
| 2026-04-22 06:23 | 9.55964 | 79.49573 | 11160 ft | 406 kts | 328° |
| 2026-04-22 06:24 | 9.60803 | 79.46504 | 12450 ft | 414 kts | 328° |
| 2026-04-22 06:24 | 9.63258 | 79.44946 | 13071 ft | 417 kts | 328° |
| 2026-04-22 06:24 | 9.65733 | 79.43376 | 13677 ft | 421 kts | 328° |
| 2026-04-22 06:25 | 9.68226 | 79.41793 | 14274 ft | 425 kts | 328° |
| 2026-04-22 06:25 | 9.70743 | 79.40196 | 14840 ft | 428 kts | 328° |
| 2026-04-22 06:25 | 9.73280 | 79.38585 | 15414 ft | 432 kts | 328° |
| 2026-04-22 06:25 | 9.75836 | 79.36961 | 15957 ft | 435 kts | 328° |
| 2026-04-22 06:26 | 9.78417 | 79.35322 | 16494 ft | 439 kts | 328° |
| 2026-04-22 06:26 | 9.81010 | 79.33675 | 17015 ft | 442 kts | 328° |
| 2026-04-22 06:26 | 9.83592 | 79.32034 | 17518 ft | 445 kts | 328° |
| 2026-04-22 06:26 | 9.86227 | 79.30359 | 18012 ft | 448 kts | 328° |
| 2026-04-22 06:27 | 9.88876 | 79.28675 | 18494 ft | 452 kts | 328° |
| 2026-04-22 06:27 | 9.91558 | 79.26971 | 18966 ft | 455 kts | 328° |
| 2026-04-22 06:27 | 9.94253 | 79.25256 | 19429 ft | 458 kts | 328° |
| 2026-04-22 06:27 | 9.96959 | 79.23535 | 19879 ft | 461 kts | 328° |
| 2026-04-22 06:28 | 9.99686 | 79.21801 | 20315 ft | 464 kts | 328° |
| 2026-04-22 06:28 | 10.02426 | 79.20057 | 20735 ft | 467 kts | 328° |
| 2026-04-22 06:28 | 10.05187 | 79.18300 | 21142 ft | 469 kts | 328° |
| 2026-04-22 06:28 | 10.07963 | 79.16533 | 21545 ft | 472 kts | 328° |
| 2026-04-22 06:29 | 10.10752 | 79.14757 | 21931 ft | 475 kts | 328° |
| 2026-04-22 06:29 | 10.21676 | 79.07798 | 23322 ft | 485 kts | 327° |
| 2026-04-22 06:29 | 10.33201 | 79.00451 | 24389 ft | 493 kts | 327° |
| 2026-04-22 06:29 | 10.44866 | 78.93007 | 25138 ft | 493 kts | 327° |
| 2026-04-22 06:30 | 10.56473 | 78.85594 | 25113 ft | 493 kts | 327° |
| 2026-04-22 06:30 | 10.67941 | 78.78263 | 25113 ft | 493 kts | 327° |
| 2026-04-22 06:30 | 10.79831 | 78.71322 | 25114 ft | 493 kts | 338° |
| 2026-04-22 06:30 | 10.92555 | 78.66107 | 25112 ft | 493 kts | 338° |
| 2026-04-22 06:31 | 11.05290 | 78.60866 | 25114 ft | 494 kts | 338° |
| 2026-04-22 06:31 | 11.18028 | 78.55621 | 25110 ft | 494 kts | 338° |
| 2026-04-22 06:31 | 11.30761 | 78.50376 | 25112 ft | 494 kts | 338° |
| 2026-04-22 06:31 | 11.43550 | 78.45104 | 25113 ft | 495 kts | 338° |
| 2026-04-22 06:32 | 11.56337 | 78.39822 | 25114 ft | 496 kts | 338° |
| 2026-04-22 06:32 | 11.69103 | 78.34546 | 25115 ft | 497 kts | 338° |
| 2026-04-22 06:32 | 11.81936 | 78.29236 | 25113 ft | 501 kts | 338° |
| 2026-04-22 06:32 | 11.94779 | 78.23791 | 25110 ft | 495 kts | 336° |
| 2026-04-22 06:33 | 12.07505 | 78.18324 | 25109 ft | 496 kts | 337° |
| 2026-04-22 06:33 | 12.20255 | 78.12856 | 25112 ft | 496 kts | 337° |
| 2026-04-22 06:33 | 12.32973 | 78.07395 | 25112 ft | 496 kts | 337° |
| 2026-04-22 06:33 | 12.45558 | 78.01982 | 25112 ft | 497 kts | 337° |
| 2026-04-22 06:34 | 12.58339 | 77.96484 | 25110 ft | 497 kts | 336° |
| 2026-04-22 06:34 | 12.71558 | 77.92650 | 25113 ft | 499 kts | 355° |
| 2026-04-22 06:34 | 12.85081 | 77.91626 | 23336 ft | 477 kts | 355° |
| 2026-04-22 06:34 | 12.98012 | 77.90500 | 20172 ft | 456 kts | 355° |
| 2026-04-22 06:35 | 13.10395 | 77.89415 | 17045 ft | 435 kts | 355° |
| 2026-04-22 06:35 | 13.16713 | 77.88859 | 15421 ft | 425 kts | 355° |
| 2026-04-22 06:35 | 13.19589 | 77.88170 | 13078 ft | 448 kts | 332° |
| 2026-04-22 06:35 | 13.21898 | 77.86041 | 12153 ft | 444 kts | 303° |
| 2026-04-22 06:36 | 13.23026 | 77.83189 | 11658 ft | 427 kts | 278° |
| 2026-04-22 06:36 | 13.22763 | 77.80219 | 10787 ft | 418 kts | 254° |
| 2026-04-22 06:36 | 13.21659 | 77.77434 | 9611 ft | 422 kts | 245° |
| 2026-04-22 06:36 | 13.20270 | 77.74818 | 8508 ft | 419 kts | 239° |
| 2026-04-22 06:37 | 13.18870 | 77.72191 | 7431 ft | 417 kts | 244° |
| 2026-04-22 06:37 | 13.17641 | 77.69518 | 6527 ft | 410 kts | 243° |
| 2026-04-22 06:37 | 13.16286 | 77.66953 | 5898 ft | 399 kts | 242° |
| 2026-04-22 06:37 | 13.15505 | 77.64336 | 5556 ft | 380 kts | 268° |
| 2026-04-22 06:38 | 13.16117 | 77.61754 | 4791 ft | 376 kts | 303° |
| 2026-04-22 06:38 | 13.17411 | 77.59491 | 4333 ft | 362 kts | 291° |
| 2026-04-22 06:38 | 13.18023 | 77.57074 | 4174 ft | 354 kts | 281° |
| 2026-04-22 06:38 | 13.18803 | 77.54644 | 4756 ft | 360 kts | 305° |
| 2026-04-22 06:39 | 13.20907 | 77.53612 | 4744 ft | 359 kts | 11° |
| 2026-04-22 06:39 | 13.22777 | 77.55168 | 4854 ft | 369 kts | 71° |
| 2026-04-22 06:39 | 13.22462 | 77.57703 | 4743 ft | 368 kts | 109° |
| 2026-04-22 06:39 | 13.21668 | 77.60197 | 4959 ft | 369 kts | 106° |
| 2026-04-22 06:40 | 13.21134 | 77.62782 | 4882 ft | 375 kts | 99° |
| 2026-04-22 06:40 | 13.20735 | 77.65446 | 4130 ft | 365 kts | 95° |
| 2026-04-22 06:40 | 13.20747 | 77.67794 | 3261 ft | 299 kts | 89° |
| 2026-04-22 06:40 | 13.20698 | 77.69700 | 3022 ft | 234 kts | 92° |
| 2026-04-22 06:41 | 13.20689 | 77.69966 | 3011 ft | 0 kts | 92° |
| 2026-04-22 06:41 | 13.20688 | 77.69987 | 3011 ft | 23 kts | 92° |
| 2026-04-22 06:41 | 13.20717 | 77.70462 | 3011 ft | 108 kts | 87° |
| 2026-04-22 06:41 | 13.20767 | 77.71456 | 3056 ft | 165 kts | 87° |
| 2026-04-22 06:42 | 13.20816 | 77.72795 | 3260 ft | 203 kts | 89° |
| 2026-04-22 06:42 | 13.20723 | 77.74264 | 3994 ft | 206 kts | 99° |
| 2026-04-22 06:42 | 13.21044 | 77.75650 | 4407 ft | 221 kts | 34° |
| 2026-04-22 06:42 | 13.22280 | 77.76746 | 4164 ft | 263 kts | 78° |
| 2026-04-22 06:43 | 13.22147 | 77.78494 | 5340 ft | 223 kts | 115° |
| 2026-04-22 06:43 | 13.21542 | 77.80067 | 5286 ft | 269 kts | 100° |
| 2026-04-22 06:43 | 13.20632 | 77.81574 | 6049 ft | 256 kts | 155° |
| 2026-04-22 06:43 | 13.19012 | 77.82128 | 6794 ft | 255 kts | 179° |
| 2026-04-22 06:44 | 13.17988 | 77.80805 | 5659 ft | 285 kts | 289° |
| 2026-04-22 06:44 | 13.18780 | 77.78946 | 5547 ft | 304 kts | 290° |
| 2026-04-22 06:44 | 13.19112 | 77.76682 | 4138 ft | 336 kts | 267° |
| 2026-04-22 06:44 | 13.18936 | 77.74366 | 3401 ft | 309 kts | 269° |
| 2026-04-22 06:45 | 13.18968 | 77.72445 | 3232 ft | 232 kts | 270° |
| 2026-04-22 06:45 | 13.18785 | 77.71039 | 3011 ft | 142 kts | 252° |
| 2026-04-22 06:45 | 13.18773 | 77.70870 | 3020 ft | 1 kts | 153° |